.
WxDataArchive / Data Records for 2015-04-18
2015-04-17 April 2015 2015-04-19

Data Records for Saturday, 18 April 2015

Time	Temp	Chill	HIndex	Humid	Dewpt	 Wind 	HiWind	WindDir	Rain 	Barom
-----	----	-----	------	-----	-----	------	------	-------	-----	-----
00:00	57.2	57.2	57.2	65	45.5	0	0	---	0.00	29.994 
00:05	56.9	56.9	56.9	65	45.3	0	0	---	0.00	29.994 
00:10	56.7	56.7	56.7	67	45.9	0	0	---	0.00	29.994 
00:15	56.6	56.6	56.6	67	45.8	0	0	---	0.00	29.996 
00:20	56.5	56.5	56.5	67	45.7	0	0	---	0.00	29.996 
00:25	56.3	56.3	56.3	68	45.9	0	0	---	0.00	29.996 
00:30	56.2	56.2	56.2	68	45.8	0	0	---	0.00	29.990 
00:35	55.9	55.9	55.9	69	45.9	0	0	---	0.00	29.990 
00:40	55.6	55.6	55.6	69	45.6	0	0	---	0.00	29.990 
00:45	55.4	55.4	55.4	69	45.4	0	0	---	0.00	29.994 
00:50	55.1	55.1	55.1	70	45.5	0	0	---	0.00	29.994 
00:55	55.1	55.1	55.1	71	45.9	0	0	---	0.00	29.994 
01:00	55.0	55.0	55.0	72	46.1	0	0	---	0.00	29.990 
01:05	54.8	54.8	54.8	73	46.3	0	0	---	0.00	29.990 
01:10	54.5	54.5	54.5	73	46.0	0	0	---	0.00	29.990 
01:15	54.4	54.4	54.4	73	45.9	0	0	---	0.00	29.986 
01:20	54.1	54.1	54.1	73	45.6	0	0	---	0.00	29.986 
01:25	53.9	53.9	53.9	73	45.4	0	0	---	0.00	29.986 
01:30	53.6	53.6	53.6	74	45.5	0	0	---	0.00	29.984 
01:35	53.5	53.5	53.5	75	45.8	0	0	---	0.00	29.984 
01:40	53.3	53.3	53.3	75	45.6	0	0	---	0.00	29.984 
01:45	53.2	53.2	53.2	76	45.8	0	0	---	0.00	29.984 
01:50	53.2	53.2	53.2	76	45.8	0	0	---	0.00	29.984 
01:55	53.1	53.1	53.1	77	46.1	0	0	---	0.00	29.984 
02:00	53.1	53.1	53.1	77	46.1	0	0	---	0.00	29.987 
02:05	52.9	52.9	52.9	77	45.9	0	0	---	0.00	29.987 
02:10	52.9	52.9	52.9	77	45.9	0	0	---	0.00	29.987 
02:15	52.9	52.9	52.9	77	45.9	0	0	---	0.00	29.991 
02:20	52.9	52.9	52.9	77	45.9	0	0	---	0.00	29.991 
02:25	52.9	52.9	52.9	78	46.2	0	0	---	0.00	29.991 
02:30	52.9	52.9	52.9	77	45.9	0	0	---	0.00	29.990 
02:35	52.9	52.9	52.9	77	45.9	0	0	---	0.00	29.990 
02:40	53.1	53.1	53.1	77	46.1	0	0	---	0.00	29.990 
02:45	53.1	53.1	53.1	77	46.1	0	0	---	0.00	29.994 
02:50	53.1	53.1	53.1	77	46.1	0	0	---	0.00	29.994 
02:55	53.2	53.2	53.2	77	46.2	0	0	---	0.00	29.994 
03:00	53.2	53.2	53.2	76	45.8	0	0	---	0.00	29.990 
03:05	53.3	53.3	53.3	76	45.9	0	0	---	0.00	29.990 
03:10	53.6	53.6	53.6	75	45.9	0	0	---	0.00	29.990 
03:15	53.9	53.9	53.9	75	46.2	0	0	---	0.00	29.989 
03:20	54.1	54.1	54.1	74	46.0	0	0	---	0.00	29.989 
03:25	54.4	54.4	54.4	74	46.3	0	0	---	0.00	29.989 
03:30	54.7	54.7	54.7	74	46.6	0	0	---	0.00	29.992 
03:35	55.0	55.0	55.0	73	46.5	0	0	---	0.00	29.992 
03:40	55.0	55.0	55.0	72	46.1	0	0	---	0.00	29.992 
03:45	55.0	55.0	55.0	72	46.1	0	0	---	0.00	29.994 
03:50	54.8	54.8	54.8	72	45.9	0	0	---	0.00	29.994 
03:55	54.5	54.5	54.5	73	46.0	0	0	---	0.00	29.994 
04:00	54.2	54.2	54.2	73	45.7	0	0	---	0.00	29.996 
04:05	53.9	53.9	53.9	74	45.8	0	0	---	0.00	29.996 
04:10	53.8	53.8	53.8	74	45.7	0	0	---	0.00	29.996 
04:15	53.5	53.5	53.5	74	45.4	0	0	---	0.00	29.994 
04:20	53.3	53.3	53.3	74	45.2	0	0	---	0.00	29.994 
04:25	53.1	53.1	53.1	75	45.4	0	0	---	0.00	29.994 
04:30	52.9	52.9	52.9	76	45.5	0	0	---	0.00	29.997 
04:35	53.1	53.1	53.1	77	46.1	0	0	---	0.00	29.997 
04:40	52.9	52.9	52.9	77	45.9	0	0	---	0.00	29.997 
04:45	52.8	52.8	52.8	77	45.8	0	0	---	0.00	29.996 
04:50	52.6	52.6	52.6	77	45.6	0	0	---	0.00	29.996 
04:55	52.5	52.5	52.5	77	45.5	0	0	---	0.00	29.996 
05:00	52.2	52.2	52.2	77	45.2	0	0	---	0.00	29.992 
05:05	52.0	52.0	52.0	78	45.4	0	0	---	0.00	29.992 
05:10	51.7	51.7	51.7	78	45.1	0	0	---	0.00	29.992 
05:15	51.6	51.6	51.6	79	45.3	0	0	---	0.00	29.996 
05:20	51.6	51.6	51.6	79	45.3	0	0	---	0.00	29.996 
05:25	51.4	51.4	51.4	79	45.1	0	0	---	0.00	29.996 
05:30	51.4	51.4	51.4	80	45.4	0	0	---	0.00	29.996 
05:35	51.3	51.3	51.3	80	45.3	0	0	---	0.00	29.996 
05:40	51.3	51.3	51.3	80	45.3	0	0	---	0.00	29.996 
05:45	51.1	51.1	51.1	81	45.5	0	0	---	0.00	29.994 
05:50	51.0	51.0	51.0	80	45.0	0	0	---	0.00	29.994 
05:55	50.8	50.8	50.8	81	45.2	0	0	---	0.00	29.994 
06:00	50.7	50.7	50.7	81	45.1	0	0	---	0.00	29.993 
06:05	50.5	50.5	50.5	81	44.9	0	0	---	0.00	29.993 
06:10	50.5	50.5	50.5	81	44.9	0	0	---	0.00	29.993 
06:15	50.4	50.4	50.4	81	44.8	0	0	---	0.00	29.998 
06:20	50.1	50.1	50.1	81	44.5	0	0	---	0.00	29.998 
06:25	49.9	49.9	49.9	81	44.3	0	0	---	0.00	29.998 
06:30	49.8	49.8	49.8	82	44.5	0	0	---	0.00	29.998 
06:35	49.6	49.6	49.6	82	44.3	0	0	---	0.00	29.998 
06:40	49.5	49.5	49.5	82	44.2	0	0	---	0.00	29.998 
06:45	49.4	49.4	49.4	83	44.5	0	0	---	0.00	29.997 
06:50	49.4	49.4	49.4	83	44.5	0	0	---	0.00	29.997 
06:55	49.2	49.2	49.2	84	44.6	0	0	---	0.00	29.997 
07:00	49.2	49.2	49.2	84	44.6	0	0	---	0.00	29.996 
07:05	49.1	49.1	49.1	84	44.5	0	0	---	0.00	29.996 
07:10	48.9	48.9	48.9	84	44.3	0	0	---	0.00	29.996 
07:15	48.9	48.9	48.9	84	44.3	0	0	---	0.00	30.004 
07:20	48.9	48.9	48.9	84	44.3	0	0	---	0.00	30.004 
07:25	48.9	48.9	48.9	84	44.3	0	0	---	0.00	30.004 
07:30	48.9	48.9	48.9	85	44.6	0	0	---	0.00	30.010 
07:35	49.1	49.1	49.1	85	44.8	0	0	---	0.00	30.010 
07:40	49.4	49.4	49.4	85	45.1	0	0	---	0.00	30.010 
07:45	49.8	49.8	49.8	85	45.5	0	0	---	0.00	30.014 
07:50	50.4	50.4	50.4	86	46.4	0	0	---	0.00	30.014 
07:55	51.0	51.0	51.0	86	47.0	0	0	---	0.00	30.014 
08:00	51.7	51.7	51.7	85	47.3	0	0	---	0.00	30.015 
08:05	52.3	52.3	52.3	85	47.9	0	0	---	0.00	30.015 
08:10	53.5	53.5	53.5	84	48.8	0	0	---	0.00	30.015 
08:15	55.0	55.0	55.0	80	48.9	0	0	---	0.00	30.018 
08:20	56.6	56.6	56.6	75	48.8	0	0	---	0.00	30.018 
08:25	57.6	57.6	57.6	73	49.0	0	0	---	0.00	30.018 
08:30	58.7	58.7	58.7	73	50.1	0	0	---	0.00	30.016 
08:35	59.5	59.5	59.5	73	50.8	0	0	---	0.00	30.016 
08:40	60.4	60.4	60.4	69	50.2	0	0	---	0.00	30.016 
08:45	60.9	60.9	60.9	64	48.6	0	1	292	0.00	30.013 
08:50	61.3	61.3	61.3	61	47.7	0	1	292	0.00	30.013 
08:55	61.8	61.8	61.8	59	47.3	0	1	292	0.00	30.013 
09:00	62.3	62.3	62.3	59	47.8	0	1	292	0.00	30.011 
09:05	62.7	62.7	62.7	58	47.7	0	1	292	0.00	30.011 
09:10	63.4	63.4	63.4	58	48.4	0	1	292	0.00	30.011 
09:15	64.0	64.0	64.0	56	48.0	0	1	292	0.00	30.006 
09:20	64.7	64.7	64.7	56	48.6	0	1	292	0.00	30.006 
09:25	65.2	65.2	65.2	54	48.1	0	1	292	0.00	30.006 
09:30	65.6	65.6	65.6	54	48.5	0	0	---	0.00	30.001 
09:35	66.3	66.3	66.3	50	47.1	0	1	292	0.00	30.001 
09:40	66.8	66.8	66.8	50	47.6	0	2	292	0.00	30.001 
09:45	67.4	67.4	67.4	49	47.6	1	3	292	0.00	30.002 
09:50	67.9	67.9	67.9	49	48.0	0	1	292	0.00	30.002 
09:55	68.4	68.4	68.4	48	47.9	0	3	292	0.00	30.002 
10:00	68.9	68.9	68.9	47	47.8	1	3	292	0.00	29.998 
10:05	69.4	69.4	69.4	47	48.3	0	2	292	0.00	29.998 
10:10	70.1	70.1	70.1	45	47.8	0	2	292	0.00	29.998 
10:15	70.8	70.8	70.8	46	49.0	0	2	292	0.00	29.997 
10:20	71.5	71.5	71.5	44	48.4	1	3	292	0.00	29.997 
10:25	71.8	71.8	71.8	43	48.1	1	3	292	0.00	29.997 
10:30	72.0	72.0	72.0	43	48.3	1	4	292	0.00	30.004 
10:35	72.1	72.1	72.1	44	49.0	1	4	292	0.00	30.004 
10:40	72.1	72.1	72.1	44	49.0	1	3	270	0.00	30.004 
10:45	72.1	72.1	72.1	45	49.6	1	4	315	0.00	30.007 
10:50	72.5	72.5	72.5	45	49.9	1	2	315	0.00	30.007 
10:55	73.0	73.0	73.0	45	50.4	0	1	315	0.00	30.007 
11:00	73.2	73.2	73.2	44	50.0	1	3	315	0.00	30.008 
11:05	72.8	72.8	72.8	44	49.6	1	4	315	0.00	30.008 
11:10	72.5	72.5	72.5	45	49.9	1	3	315	0.00	30.008 
11:15	72.5	72.5	72.5	44	49.3	1	3	338	0.00	30.010 
11:20	72.8	72.8	72.8	45	50.2	0	2	338	0.00	30.010 
11:25	73.0	73.0	73.0	45	50.4	0	2	338	0.00	30.010 
11:30	73.5	73.5	73.5	44	50.2	1	3	338	0.00	30.003 
11:35	74.0	74.0	74.0	43	50.1	0	1	338	0.00	30.003 
11:40	74.7	74.7	74.7	43	50.7	1	4	338	0.00	30.003 
11:45	74.9	74.9	74.9	42	50.2	0	2	338	0.00	30.002 
11:50	75.3	75.3	77.6	41	50.0	0	3	338	0.00	30.002 
11:55	75.4	75.4	77.6	41	50.0	0	1	292	0.00	30.002 
12:00	76.0	76.0	77.8	40	49.9	0	2	315	0.00	29.995 
12:05	76.3	76.3	77.9	40	50.2	0	2	315	0.00	29.995 
12:10	76.5	76.5	78.0	39	49.7	0	2	315	0.00	29.995 
12:15	76.5	76.5	77.9	38	49.0	1	3	315	0.00	29.994 
12:20	76.5	76.5	78.1	41	51.0	0	2	315	0.00	29.994 
12:25	76.8	76.8	78.2	41	51.3	0	4	315	0.00	29.994 
12:30	77.2	77.2	78.3	39	50.3	1	3	315	0.00	29.992 
12:35	77.0	77.0	78.2	39	50.1	1	4	315	0.00	29.992 
12:40	77.2	77.2	78.3	39	50.3	0	2	315	0.00	29.992 
12:45	77.4	77.4	78.4	39	50.5	1	4	68	0.00	29.991 
12:50	77.6	77.6	78.4	38	50.0	1	4	90	0.00	29.991 
12:55	77.6	77.6	78.5	39	50.7	1	3	90	0.00	29.991 
13:00	77.6	77.6	78.4	38	50.0	0	4	90	0.00	29.991 
13:05	77.7	77.7	78.6	41	52.1	0	2	90	0.00	29.991 
13:10	77.9	77.9	78.6	39	50.9	0	2	90	0.00	29.991 
13:15	77.7	77.7	78.3	36	48.6	0	1	90	0.00	29.996 
13:20	77.7	77.7	78.5	39	50.7	0	1	90	0.00	29.996 
13:25	77.4	77.4	78.1	35	47.6	1	3	90	0.00	29.996 
13:30	76.8	76.8	77.9	35	47.1	0	1	90	0.00	29.996 
13:35	76.8	76.8	78.0	37	48.5	0	1	90	0.00	29.996 
13:40	76.8	76.8	77.9	36	47.8	1	3	90	0.00	29.996 
13:45	76.8	76.8	78.0	37	48.5	0	2	90	0.00	29.996 
13:50	76.8	76.8	78.0	37	48.5	0	2	90	0.00	29.996 
13:55	76.8	76.8	77.9	35	47.1	0	2	90	0.00	29.996 
14:00	76.7	76.7	77.9	36	47.7	0	1	90	0.00	29.994 
14:05	76.8	76.8	78.1	39	49.9	0	0	---	0.00	29.994 
14:10	77.0	77.0	78.0	36	48.0	0	1	90	0.00	29.994 
14:15	77.2	77.2	78.0	34	46.6	0	2	90	0.00	29.992 
14:20	77.2	77.2	77.9	33	45.8	0	1	90	0.00	29.992 
14:25	77.4	77.4	78.3	38	49.8	0	1	90	0.00	29.992 
14:30	77.6	77.6	78.2	35	47.8	0	1	90	0.00	29.984 
14:35	77.7	77.7	78.4	37	49.3	0	1	90	0.00	29.984 
14:40	77.7	77.7	78.3	36	48.6	0	1	90	0.00	29.984 
14:45	77.7	77.7	78.3	35	47.8	0	1	90	0.00	29.985 
14:50	77.7	77.7	78.3	35	47.8	0	1	90	0.00	29.985 
14:55	77.6	77.6	78.2	35	47.8	0	1	90	0.00	29.985 
15:00	77.6	77.6	78.2	35	47.8	0	2	90	0.00	29.987 
15:05	77.6	77.6	78.2	34	47.0	0	1	90	0.00	29.987 
15:10	77.4	77.4	78.1	34	46.8	0	0	---	0.00	29.987 
15:15	77.2	77.2	78.1	35	47.4	0	0	---	0.00	29.984 
15:20	77.2	77.2	77.9	33	45.8	0	0	---	0.00	29.984 
15:25	77.0	77.0	77.9	33	45.7	0	1	90	0.00	29.984 
15:30	76.8	76.8	77.7	32	44.7	0	1	90	0.00	29.981 
15:35	76.5	76.5	77.8	35	46.8	0	1	90	0.00	29.981 
15:40	76.3	76.3	77.8	38	48.8	0	1	90	0.00	29.981 
15:45	76.1	76.1	77.7	36	47.2	0	1	90	0.00	29.974 
15:50	76.0	76.0	77.6	35	46.4	0	1	90	0.00	29.974 
15:55	76.0	76.0	77.7	37	47.8	0	0	---	0.00	29.974 
16:00	76.0	76.0	77.6	35	46.4	0	0	---	0.00	29.968 
16:05	75.8	75.8	77.6	36	46.9	0	0	---	0.00	29.968 
16:10	75.8	75.8	77.5	35	46.2	0	0	---	0.00	29.968 
16:15	76.0	76.0	77.6	36	47.1	0	1	90	0.00	29.968 
16:20	76.0	76.0	77.7	38	48.5	0	2	90	0.00	29.968 
16:25	76.0	76.0	77.7	38	48.5	1	3	90	0.00	29.968 
16:30	75.8	75.8	77.7	39	49.1	2	6	90	0.00	29.971 
16:35	75.4	75.4	77.6	39	48.7	2	6	90	0.00	29.971 
16:40	75.3	75.3	77.5	39	48.6	2	6	90	0.00	29.971 
16:45	75.3	75.3	77.6	40	49.3	2	6	90	0.00	29.969 
16:50	75.3	75.3	77.6	41	50.0	2	6	112	0.00	29.969 
16:55	75.4	75.4	77.5	38	48.0	2	5	90	0.00	29.969 
17:00	76.0	76.0	77.7	38	48.5	3	7	90	0.00	29.964 
17:05	76.5	76.5	77.9	38	49.0	2	7	112	0.00	29.964 
17:10	76.7	76.7	78.1	39	49.9	3	7	112	0.00	29.964 
17:15	76.8	76.8	77.9	36	47.8	2	6	112	0.00	29.959 
17:20	76.8	76.8	77.9	35	47.1	2	6	112	0.00	29.959 
17:25	76.8	76.8	77.9	35	47.1	3	6	90	0.00	29.959 
17:30	76.8	76.8	77.9	36	47.8	3	6	90	0.00	29.958 
17:35	76.7	76.7	77.8	34	46.2	4	10	112	0.00	29.958 
17:40	76.5	76.5	77.8	35	46.8	4	10	112	0.00	29.958 
17:45	76.3	76.3	77.7	36	47.4	3	7	90	0.00	29.962 
17:50	76.1	76.1	77.7	37	47.9	4	7	112	0.00	29.962 
17:55	74.9	74.9	74.9	41	49.6	8	14	112	0.00	29.962 
18:00	73.3	73.3	73.3	43	49.4	7	15	112	0.00	29.970 
18:05	72.1	72.1	72.1	43	48.4	6	15	90	0.00	29.970 
18:10	71.3	71.3	71.3	43	47.6	6	11	90	0.00	29.970 
18:15	70.8	70.8	70.8	44	47.8	6	13	90	0.00	29.987 
18:20	70.3	70.3	70.3	43	46.7	6	12	90	0.00	29.987 
18:25	69.6	69.6	69.6	43	46.1	6	15	112	0.00	29.987 
18:30	68.9	68.9	68.9	43	45.5	6	16	112	0.00	29.992 
18:35	68.4	68.4	68.4	41	43.8	5	12	112	0.00	29.992 
18:40	68.1	68.1	68.1	41	43.5	5	16	112	0.00	29.992 
18:45	67.6	67.6	67.6	41	43.1	5	13	112	0.00	30.003 
18:50	67.1	67.1	67.1	41	42.6	6	12	90	0.00	30.003 
18:55	66.6	66.6	66.6	40	41.5	8	15	90	0.00	30.003 
19:00	66.3	66.3	66.3	42	42.5	5	9	112	0.00	30.007 
19:05	66.0	66.0	66.0	40	41.0	4	11	90	0.00	30.007 
19:10	65.6	65.6	65.6	40	40.6	6	13	90	0.00	30.007 
19:15	65.5	65.5	65.5	42	41.8	3	10	112	0.00	29.998 
19:20	65.2	65.2	65.2	41	40.9	4	10	112	0.00	29.998 
19:25	64.8	64.8	64.8	40	39.9	5	12	112	0.00	29.998 
19:30	64.5	64.5	64.5	39	39.0	6	13	112	0.00	29.993 
19:35	64.3	64.3	64.3	39	38.8	6	14	90	0.00	29.993 
19:40	64.0	64.0	64.0	40	39.2	4	9	90	0.00	29.993 
19:45	63.7	63.7	63.7	39	38.3	4	10	112	0.00	29.994 
19:50	63.4	63.4	63.4	38	37.3	6	11	90	0.00	29.994 
19:55	63.2	63.2	63.2	39	37.8	5	11	90	0.00	29.994 
20:00	63.1	63.1	63.1	39	37.7	4	10	90	0.00	29.998 
20:05	62.6	62.6	62.6	37	36.0	5	13	90	0.00	29.998 
20:10	62.4	62.4	62.4	35	34.4	5	14	112	0.00	29.998 
20:15	62.1	62.1	62.1	34	33.4	4	14	90	0.00	29.997 
20:20	61.8	61.8	61.8	32	31.6	3	10	90	0.00	29.997 
20:25	61.6	61.6	61.6	30	29.9	4	10	90	0.00	29.997 
20:30	61.3	61.3	61.3	29	28.8	3	6	90	0.00	30.003 
20:35	61.2	61.2	61.2	28	27.8	4	10	90	0.00	30.003 
20:40	60.9	60.9	60.9	31	30.1	2	5	90	0.00	30.003 
20:45	60.5	60.5	60.5	32	30.5	2	4	90	0.00	30.017 
20:50	60.2	60.2	60.2	30	28.7	3	10	90	0.00	30.017 
20:55	60.1	60.1	60.1	28	26.9	4	11	90	0.00	30.017 
21:00	60.1	60.1	60.1	28	26.9	3	11	90	0.00	30.029 
21:05	59.9	59.9	59.9	28	26.7	4	9	112	0.00	30.029 
21:10	59.8	59.8	59.8	28	26.6	3	7	112	0.00	30.029 
21:15	59.5	59.5	59.5	27	25.5	4	9	90	0.00	30.025 
21:20	59.3	59.3	59.3	28	26.2	4	11	112	0.00	30.025 
21:25	59.2	59.2	59.2	27	25.2	3	7	90	0.00	30.025 
21:30	59.0	59.0	59.0	28	25.9	3	7	90	0.00	30.030 
21:35	58.7	58.7	58.7	28	25.7	3	9	90	0.00	30.030 
21:40	58.6	58.6	58.6	27	24.7	3	7	90	0.00	30.030 
21:45	58.3	58.3	58.3	28	25.3	2	5	90	0.00	30.032 
21:50	58.1	58.1	58.1	29	26.0	2	5	90	0.00	30.032 
21:55	57.8	57.8	57.8	30	26.6	1	3	90	0.00	30.032 
22:00	57.5	57.5	57.5	30	26.3	2	5	90	0.00	30.034 
22:05	57.3	57.3	57.3	30	26.1	3	6	90	0.00	30.034 
22:10	57.2	57.2	57.2	29	25.2	3	5	90	0.00	30.034 
22:15	57.0	57.0	57.0	29	25.1	2	5	90	0.00	30.039 
22:20	56.9	56.9	56.9	29	25.0	2	5	135	0.00	30.039 
22:25	56.9	56.9	56.9	29	25.0	2	9	112	0.00	30.039 
22:30	56.7	56.7	56.7	30	25.6	1	4	90	0.00	30.034 
22:35	56.6	56.6	56.6	31	26.3	1	5	90	0.00	30.034 
22:40	56.5	56.5	56.5	31	26.2	2	5	112	0.00	30.034 
22:45	56.3	56.3	56.3	31	26.1	2	6	112	0.00	30.034 
22:50	56.2	56.2	56.2	31	26.0	2	5	90	0.00	30.034 
22:55	56.2	56.2	56.2	31	26.0	2	5	90	0.00	30.034 
23:00	56.0	56.0	56.0	31	25.8	3	6	90	0.00	30.030 
23:05	56.0	56.0	56.0	32	26.6	2	5	90	0.00	30.030 
23:10	55.9	55.9	55.9	32	26.5	2	5	68	0.00	30.030 
23:15	55.7	55.7	55.7	33	27.0	2	5	90	0.00	30.021 
23:20	55.4	55.4	55.4	34	27.5	1	4	90	0.00	30.021 
23:25	55.3	55.3	55.3	34	27.4	2	7	90	0.00	30.021 
23:30	55.3	55.3	55.3	34	27.4	2	6	90	0.00	30.016 
23:35	55.1	55.1	55.1	35	27.9	1	5	90	0.00	30.016 
23:40	55.0	55.0	55.0	35	27.9	1	6	90	0.00	30.016 
23:45	54.8	54.8	54.8	35	27.7	2	5	90	0.00	30.015 
23:50	54.5	54.5	54.5	36	28.1	1	3	90	0.00	30.015 
23:55	54.4	54.4	54.4	37	28.7	1	4	90	0.00	30.015 

CoCoRaHS
IN-AL-39
A2 Web Hosting
Creative Commons License
GoDaddy
search engine by freefind advanced

loaded 2018-11-16 00:03:44 • last modified 2010-11-18 10:43:29
Privacy PolicyDisclaimer
• wx.awcolley.com is powered by PmWiki v.2002016 •
• all content (unless otherwise noted) © 2018 A W Colley